Time;durP1;ratioP1;P1;durP2;ratioP2;P2;SDS_P1;SDS_P2;PMS_P1;PMS_P2;Temp;Humidity;BMP_temperature;BMP_pressure;BME280_temperature;BME280_humidity;BME280_pressure;Samples;Min_cycle;Max_cycle;Signal;HPM_P1;HPM_P2
2023/07/01 00:01:39;;;;;;;7.60;4.80;;;;;;;23.23;51.61;99888.48;108449;1277;21988;-59
2023/07/01 00:04:05;;;;;;;5.90;4.10;;;;;;;23.26;51.74;99889.71;108462;1270;22015;-70
2023/07/01 00:06:31;;;;;;;8.70;4.40;;;;;;;23.29;51.76;99886.80;108445;1277;21992;-70
2023/07/01 00:08:57;;;;;;;5.60;4.20;;;;;;;23.30;52.19;99887.79;108453;1281;21997;-59
2023/07/01 00:11:22;;;;;;;6.60;4.10;;;;;;;23.28;52.06;99890.48;108474;1277;21981;-59
2023/07/01 00:13:48;;;;;;;8.00;4.70;;;;;;;23.28;52.15;99889.42;108441;1281;21981;-70
2023/07/01 00:16:14;;;;;;;7.20;4.70;;;;;;;23.29;51.94;99886.85;108418;1281;21983;-69
2023/07/01 00:18:43;;;;;;;7.70;4.80;;;;;;;23.32;52.09;99889.64;108432;1277;21974;-59
2023/07/01 00:21:09;;;;;;;6.50;4.00;;;;;;;23.36;51.84;99885.95;108478;1280;21993;-69
2023/07/01 00:23:35;;;;;;;7.30;4.70;;;;;;;23.39;51.75;99882.52;108494;1280;22921;-69
2023/07/01 00:26:00;;;;;;;10.50;4.70;;;;;;;23.41;51.60;99885.39;108430;1273;21991;-59
2023/07/01 00:28:26;;;;;;;8.00;4.60;;;;;;;23.43;51.62;99883.48;108423;1280;21988;-69
2023/07/01 00:30:53;;;;;;;7.30;4.80;;;;;;;23.43;51.66;99882.38;108445;1281;21982;-59
2023/07/01 00:33:19;;;;;;;7.30;4.40;;;;;;;23.43;51.83;99880.74;108452;1276;21980;-59
2023/07/01 00:35:46;;;;;;;5.50;4.50;;;;;;;23.44;51.47;99880.90;108452;1277;24385;-70
2023/07/01 00:38:11;;;;;;;6.30;4.50;;;;;;;23.44;51.54;99880.16;108499;1281;21979;-60
2023/07/01 00:40:37;;;;;;;4.90;4.20;;;;;;;23.43;51.60;99880.55;108478;1276;21980;-70
2023/07/01 00:43:03;;;;;;;7.00;4.80;;;;;;;23.42;51.51;99879.39;108448;1277;21981;-59
2023/07/01 00:45:29;;;;;;;5.90;4.40;;;;;;;23.42;51.60;99880.69;108433;1280;21984;-59
2023/07/01 00:47:54;;;;;;;4.90;4.10;;;;;;;23.41;51.63;99876.09;108458;1276;21983;-70
2023/07/01 00:50:20;;;;;;;7.30;4.10;;;;;;;23.40;51.86;99872.55;108457;1280;21983;-59
2023/07/01 00:52:46;;;;;;;5.40;4.40;;;;;;;23.40;51.88;99873.28;108193;1281;21977;-70
2023/07/01 00:55:12;;;;;;;7.00;4.30;;;;;;;23.39;51.72;99874.30;108446;1273;21988;-59
2023/07/01 00:57:38;;;;;;;5.80;4.30;;;;;;;23.35;51.70;99873.85;108477;1280;21990;-70
2023/07/01 01:00:08;;;;;;;7.60;4.40;;;;;;;23.30;51.48;99877.59;108454;1277;21984;-70
2023/07/01 01:03:14;;;;;;;5.30;4.40;;;;;;;23.26;51.64;99877.36;108438;1275;22263;-59
2023/07/01 01:05:55;;;;;;;7.60;4.20;;;;;;;23.23;51.66;99874.70;108479;1280;23733;-59
2023/07/01 01:08:28;;;;;;;5.80;4.60;;;;;;;23.22;51.95;99875.69;108475;1277;21990;-70
2023/07/01 01:10:53;;;;;;;7.40;4.60;;;;;;;23.22;52.16;99874.63;108488;1274;21990;-59
2023/07/01 01:13:19;;;;;;;6.40;4.90;;;;;;;23.21;52.17;99874.64;108252;1281;21981;-69
2023/07/01 01:15:44;;;;;;;6.10;4.90;;;;;;;23.23;52.18;99874.20;108166;1281;22450;-69
2023/07/01 01:18:10;;;;;;;6.80;4.50;;;;;;;23.26;52.30;99874.01;108459;1277;22017;-59
2023/07/01 01:20:38;;;;;;;7.20;4.50;;;;;;;23.27;52.33;99870.49;108433;1271;21977;-69
2023/07/01 01:23:06;;;;;;;6.90;4.30;;;;;;;23.27;52.37;99867.77;108223;1280;21976;-59
2023/07/01 01:26:05;;;;;;;7.30;4.90;;;;;;;23.29;52.36;99871.77;108500;1281;22077;-61
2023/07/01 01:28:35;;;;;;;6.80;4.50;;;;;;;23.29;52.44;99872.64;108456;1276;21976;-68
2023/07/01 01:31:01;;;;;;;9.80;4.60;;;;;;;23.27;52.34;99871.74;108450;1280;21985;-59
2023/07/01 01:33:27;;;;;;;6.50;4.70;;;;;;;23.22;52.35;99875.15;108498;1277;23602;-59
2023/07/01 01:35:54;;;;;;;6.90;4.80;;;;;;;23.16;52.62;99876.25;108482;1276;22009;-59
2023/07/01 01:38:22;;;;;;;8.10;5.30;;;;;;;23.11;52.68;99875.90;108508;1281;21983;-70
2023/07/01 01:40:48;;;;;;;6.70;4.90;;;;;;;23.02;53.11;99876.05;108481;1277;24330;-70
2023/07/01 01:43:41;;;;;;;8.30;5.20;;;;;;;22.98;53.27;99873.78;108435;1281;22447;-69
2023/07/01 01:46:07;;;;;;;9.60;5.40;;;;;;;22.98;53.42;99876.99;108526;1276;21993;-69
2023/07/01 01:48:32;;;;;;;9.10;4.70;;;;;;;23.05;53.25;99874.43;108203;1277;23047;-70
2023/07/01 01:50:58;;;;;;;10.70;6.20;;;;;;;23.07;52.98;99870.84;108216;1282;22010;-64
2023/07/01 01:53:24;;;;;;;9.80;5.00;;;;;;;23.04;52.79;99866.23;108337;1280;151589;-71
2023/07/01 01:55:50;;;;;;;11.00;5.30;;;;;;;22.99;52.73;99869.79;108457;1277;21991;-70
2023/07/01 01:58:16;;;;;;;7.90;4.80;;;;;;;22.92;52.74;99871.95;108261;1276;21991;-59
2023/07/01 02:00:42;;;;;;;8.00;4.90;;;;;;;22.84;52.93;99871.23;108484;1277;21986;-59
2023/07/01 02:03:08;;;;;;;9.90;4.90;;;;;;;22.80;53.26;99874.02;108209;1276;22024;-70
2023/07/01 02:05:33;;;;;;;8.90;4.80;;;;;;;22.79;53.23;99877.85;108417;1281;21980;-70
2023/07/01 02:08:02;;;;;;;8.30;5.00;;;;;;;22.78;53.33;99876.31;108419;1281;22247;-59
2023/07/01 02:10:28;;;;;;;7.10;4.90;;;;;;;22.77;53.30;99879.94;108446;1276;22024;-69
2023/07/01 02:12:54;;;;;;;13.20;5.50;;;;;;;22.78;53.41;99881.87;108509;1281;21993;-60
2023/07/01 02:15:20;;;;;;;7.30;6.00;;;;;;;22.79;53.67;99880.90;108480;1281;21988;-60
2023/07/01 02:17:46;;;;;;;7.40;5.10;;;;;;;22.79;53.81;99883.55;108453;1277;21986;-70
2023/07/01 02:20:12;;;;;;;14.70;5.60;;;;;;;22.78;53.78;99887.20;108424;1270;22039;-59
2023/07/01 02:22:38;;;;;;;11.70;5.60;;;;;;;22.77;54.15;99892.30;108467;1276;22449;-60
2023/07/01 02:25:04;;;;;;;7.90;5.40;;;;;;;22.75;54.05;99899.77;108452;1271;21984;-69
2023/07/01 02:27:31;;;;;;;11.30;5.40;;;;;;;22.75;54.27;99896.02;108513;1281;21989;-69
2023/07/01 02:29:57;;;;;;;9.40;5.70;;;;;;;22.76;54.38;99893.45;108544;1280;21980;-59
2023/07/01 02:32:24;;;;;;;8.50;5.30;;;;;;;22.78;54.30;99893.80;108494;1276;21991;-68
2023/07/01 02:34:50;;;;;;;11.40;5.30;;;;;;;22.83;54.30;99895.67;108478;1273;21987;-69
2023/07/01 02:37:16;;;;;;;10.60;4.90;;;;;;;22.86;54.27;99891.14;108484;1274;21994;-67
2023/07/01 02:39:42;;;;;;;9.60;5.80;;;;;;;22.91;54.59;99890.77;108417;1277;21988;-60
2023/07/01 02:42:08;;;;;;;8.60;5.40;;;;;;;22.95;54.40;99892.13;108502;1277;21986;-68
2023/07/01 02:44:33;;;;;;;7.10;5.20;;;;;;;22.97;54.59;99894.43;108451;1275;21982;-69
2023/07/01 02:46:59;;;;;;;11.10;5.00;;;;;;;23.00;54.84;99895.86;108438;1281;21995;-59
2023/07/01 02:49:25;;;;;;;8.70;5.50;;;;;;;23.01;54.80;99895.58;108482;1276;21985;-59
2023/07/01 02:51:51;;;;;;;8.90;5.70;;;;;;;23.05;54.81;99895.49;108457;1281;22011;-63
2023/07/01 02:54:16;;;;;;;8.60;5.90;;;;;;;23.10;54.88;99892.48;108466;1280;21986;-59
2023/07/01 02:56:43;;;;;;;8.20;5.30;;;;;;;23.12;54.99;99889.42;108432;1276;21994;-60
2023/07/01 02:59:10;;;;;;;12.00;5.50;;;;;;;23.16;54.88;99892.35;108198;1282;21982;-60
2023/07/01 03:01:36;;;;;;;16.00;5.60;;;;;;;23.22;55.14;99890.20;108449;1273;21977;-62
2023/07/01 03:04:04;;;;;;;8.20;5.30;;;;;;;23.27;55.17;99891.10;108455;1277;21986;-60
2023/07/01 03:06:30;;;;;;;13.30;6.10;;;;;;;23.29;55.12;99894.86;108455;1273;21996;-71
2023/07/01 03:08:56;;;;;;;8.80;5.00;;;;;;;23.37;54.54;99896.79;108662;1277;21983;-59
2023/07/01 03:11:21;;;;;;;16.60;5.90;;;;;;;23.53;54.84;99896.89;108513;1281;21987;-64
2023/07/01 03:13:47;;;;;;;7.30;5.90;;;;;;;23.65;55.55;99898.84;108399;1277;21980;-70
2023/07/01 03:16:13;;;;;;;9.40;5.60;;;;;;;23.65;55.93;99902.65;108486;1277;21981;-69
2023/07/01 03:18:39;;;;;;;13.10;6.40;;;;;;;23.62;55.25;99902.12;108426;1276;22004;-60
2023/07/01 03:21:04;;;;;;;9.90;6.80;;;;;;;23.62;55.34;99904.30;108432;1280;21978;-69
2023/07/01 03:23:30;;;;;;;9.00;6.10;;;;;;;23.51;56.06;99909.73;108477;1282;21983;-60
2023/07/01 03:25:56;;;;;;;8.40;6.00;;;;;;;23.51;56.32;99913.89;108475;1280;21984;-59
2023/07/01 03:28:22;;;;;;;6.30;5.30;;;;;;;23.55;56.55;99910.16;108434;1281;22037;-60
2023/07/01 03:30:48;;;;;;;10.10;6.20;;;;;;;23.61;56.83;99905.96;108479;1276;21980;-70
2023/07/01 03:33:15;;;;;;;7.70;5.60;;;;;;;23.67;56.80;99906.08;108418;1281;21994;-60
2023/07/01 03:35:41;;;;;;;7.60;5.70;;;;;;;23.74;56.77;99904.97;108527;1274;21988;-70
2023/07/01 03:38:07;;;;;;;13.00;6.10;;;;;;;23.81;56.74;99903.23;108458;1278;21994;-71
2023/07/01 03:40:32;;;;;;;8.40;5.70;;;;;;;23.87;56.63;99899.86;108459;1276;21995;-68
2023/07/01 03:42:58;;;;;;;9.50;4.80;;;;;;;23.95;56.58;99891.98;108459;1277;21987;-60
2023/07/01 03:45:24;;;;;;;9.60;5.90;;;;;;;24.03;56.74;99889.36;108490;1281;22003;-60
2023/07/01 03:47:49;;;;;;;9.60;6.00;;;;;;;24.13;56.87;99891.00;108455;1281;21981;-70
2023/07/01 03:50:15;;;;;;;13.00;5.80;;;;;;;24.33;56.70;99889.27;108465;1280;21983;-71
2023/07/01 03:52:41;;;;;;;13.30;5.50;;;;;;;24.44;56.62;99886.92;108479;1277;21986;-60
2023/07/01 03:55:08;;;;;;;7.70;5.30;;;;;;;24.47;56.81;99889.83;108477;1282;21987;-69
2023/07/01 03:57:34;;;;;;;7.80;5.10;;;;;;;24.55;56.87;99891.15;108505;1281;21983;-68
2023/07/01 04:00:00;;;;;;;12.80;5.00;;;;;;;24.65;56.85;99891.97;108441;1281;21982;-61
2023/07/01 04:02:25;;;;;;;10.60;5.30;;;;;;;24.78;56.96;99897.80;108479;1276;21980;-60
2023/07/01 04:04:51;;;;;;;12.30;6.50;;;;;;;24.90;56.86;99899.87;108456;1281;21986;-60
2023/07/01 04:07:21;;;;;;;9.40;5.30;;;;;;;25.03;56.92;99898.88;108512;1277;21993;-70
2023/07/01 04:09:49;;;;;;;7.50;5.20;;;;;;;25.16;56.82;99901.42;108443;1280;21960;-71
2023/07/01 04:12:16;;;;;;;6.80;5.00;;;;;;;25.28;56.54;99904.71;108464;1279;22018;-70
2023/07/01 04:14:41;;;;;;;7.70;5.40;;;;;;;25.41;56.43;99904.61;108441;1277;21983;-70
2023/07/01 04:17:07;;;;;;;10.20;5.10;;;;;;;25.52;56.33;99905.65;108456;1277;21982;-71
2023/07/01 04:19:32;;;;;;;8.50;4.70;;;;;;;25.66;56.31;99902.05;108474;1281;21999;-60
2023/07/01 04:21:58;;;;;;;8.30;5.20;;;;;;;25.79;55.96;99905.46;108463;1281;21994;-63
2023/07/01 04:24:24;;;;;;;13.50;5.40;;;;;;;25.90;55.63;99906.09;108461;1277;21990;-71
2023/07/01 04:26:49;;;;;;;9.30;4.60;;;;;;;26.03;55.65;99905.55;108462;1281;21987;-62
2023/07/01 04:29:15;;;;;;;8.10;5.10;;;;;;;26.15;54.94;99906.07;108433;1277;21990;-60
2023/07/01 04:31:40;;;;;;;9.00;4.90;;;;;;;26.26;54.59;99904.21;108475;1280;21978;-60
2023/07/01 04:34:06;;;;;;;14.00;4.90;;;;;;;26.38;54.31;99906.65;108490;1281;21986;-70
2023/07/01 04:36:32;;;;;;;6.80;4.60;;;;;;;26.50;53.99;99910.27;108466;1276;21983;-60
2023/07/01 04:38:57;;;;;;;11.10;5.40;;;;;;;26.63;53.91;99911.27;108459;1280;22000;-70
2023/07/01 04:41:24;;;;;;;10.00;5.10;;;;;;;26.77;53.88;99910.41;108500;1281;21980;-71
2023/07/01 04:43:50;;;;;;;7.20;4.80;;;;;;;26.94;53.81;99909.13;108461;1278;21997;-61
2023/07/01 04:46:15;;;;;;;5.70;4.60;;;;;;;27.15;53.95;99907.83;108474;1281;21981;-60
2023/07/01 04:48:41;;;;;;;11.10;4.90;;;;;;;27.38;53.87;99904.84;108465;1281;22549;-70
2023/07/01 04:51:07;;;;;;;11.40;4.50;;;;;;;27.62;53.51;99903.24;108506;1270;21985;-60
2023/07/01 04:53:32;;;;;;;4.90;4.10;;;;;;;27.87;53.15;99899.23;108465;1275;21996;-70
2023/07/01 04:55:58;;;;;;;11.20;4.40;;;;;;;28.11;52.72;99900.39;108465;1280;21981;-59
2023/07/01 04:58:24;;;;;;;8.10;4.60;;;;;;;28.35;52.04;99898.35;108451;1281;22042;-70
2023/07/01 05:00:50;;;;;;;10.70;5.40;;;;;;;28.54;51.36;99896.71;108439;1277;21988;-70
2023/07/01 05:03:16;;;;;;;7.40;4.10;;;;;;;28.76;50.99;99899.50;108509;1281;21980;-60
2023/07/01 05:05:42;;;;;;;8.80;4.60;;;;;;;28.98;50.80;99903.52;108502;1280;21980;-71
2023/07/01 05:08:07;;;;;;;6.40;4.30;;;;;;;29.16;50.25;99905.98;108502;1278;21991;-61
2023/07/01 05:10:33;;;;;;;7.80;3.90;;;;;;;29.32;49.64;99906.90;108462;1280;22073;-71
2023/07/01 05:12:59;;;;;;;6.70;4.20;;;;;;;29.49;49.23;99905.30;108448;1276;21985;-71
2023/07/01 05:15:24;;;;;;;5.30;3.60;;;;;;;29.65;48.77;99908.92;108440;1275;21985;-70
2023/07/01 05:17:50;;;;;;;6.90;3.60;;;;;;;29.82;48.54;99913.38;108481;1280;21990;-60
2023/07/01 05:20:16;;;;;;;5.60;3.70;;;;;;;30.01;47.91;99912.77;108460;1282;21983;-61
2023/07/01 05:22:41;;;;;;;6.60;4.00;;;;;;;30.19;47.28;99911.45;108477;1281;21993;-70
2023/07/01 05:25:07;;;;;;;5.30;4.00;;;;;;;30.39;46.75;99907.84;108483;1281;21981;-70
2023/07/01 05:27:33;;;;;;;6.50;3.50;;;;;;;30.57;46.54;99910.02;108482;1276;21988;-72
2023/07/01 05:29:59;;;;;;;13.00;4.10;;;;;;;30.72;46.40;99911.52;108445;1277;21991;-60
2023/07/01 05:32:25;;;;;;;5.40;3.10;;;;;;;30.84;45.78;99916.02;108484;1281;21988;-71
2023/07/01 05:34:51;;;;;;;6.10;3.20;;;;;;;30.96;45.06;99913.67;108452;1282;21987;-61
2023/07/01 05:37:16;;;;;;;6.40;3.10;;;;;;;31.08;45.33;99910.54;108457;1277;21980;-71
2023/07/01 05:39:42;;;;;;;6.40;3.60;;;;;;;31.22;44.11;99908.56;108483;1275;21985;-61
2023/07/01 05:42:08;;;;;;;4.10;2.70;;;;;;;31.35;44.27;99909.39;108439;1277;22000;-72
2023/07/01 05:44:33;;;;;;;4.90;3.20;;;;;;;31.50;43.58;99907.98;108479;1281;21994;-60
2023/07/01 05:46:59;;;;;;;3.80;2.80;;;;;;;31.67;43.22;99911.15;108470;1276;22040;-61
2023/07/01 05:49:25;;;;;;;5.50;3.10;;;;;;;31.84;42.87;99913.15;108436;1281;21991;-72
2023/07/01 05:51:50;;;;;;;4.10;2.90;;;;;;;32.05;42.47;99911.05;108478;1281;21995;-61
2023/07/01 05:54:16;;;;;;;3.50;2.50;;;;;;;32.26;42.44;99912.20;108480;1281;21980;-60
2023/07/01 05:56:42;;;;;;;4.60;2.60;;;;;;;32.44;41.23;99912.07;108455;1281;22015;-61
2023/07/01 05:59:07;;;;;;;3.50;2.80;;;;;;;32.60;41.47;99913.05;108268;1282;21994;-70
2023/07/01 06:01:33;;;;;;;3.90;2.50;;;;;;;32.75;41.41;99911.63;108447;1277;21981;-72
2023/07/01 06:03:59;;;;;;;5.10;3.10;;;;;;;32.87;41.03;99914.44;108446;1277;22152;-71
2023/07/01 06:06:25;;;;;;;4.10;2.70;;;;;;;32.96;40.77;99914.23;108533;1281;21980;-60
2023/07/01 06:08:51;;;;;;;4.60;2.70;;;;;;;33.07;39.56;99913.17;108439;1281;21998;-67
2023/07/01 06:11:16;;;;;;;5.60;2.70;;;;;;;33.17;39.63;99913.80;108467;1281;21952;-70
2023/07/01 06:13:44;;;;;;;4.30;2.90;;;;;;;33.27;39.64;99908.27;108488;1273;21983;-72
2023/07/01 06:16:10;;;;;;;7.40;2.70;;;;;;;33.42;39.98;99912.55;108479;1277;21990;-61
2023/07/01 06:18:38;;;;;;;5.10;3.10;;;;;;;33.58;39.38;99913.63;108457;1280;21986;-60
2023/07/01 06:21:06;;;;;;;4.70;2.70;;;;;;;33.76;38.93;99912.18;108474;1277;21987;-61
2023/07/01 06:23:33;;;;;;;5.10;2.70;;;;;;;33.90;38.54;99909.55;108507;1280;22266;-60
2023/07/01 06:25:59;;;;;;;4.10;2.80;;;;;;;34.02;38.23;99908.66;108512;1277;21986;-61
2023/07/01 06:28:24;;;;;;;4.00;2.70;;;;;;;34.06;38.26;99907.50;108455;1277;22021;-72
2023/07/01 06:30:50;;;;;;;5.60;2.70;;;;;;;34.15;37.39;99903.88;108467;1281;21997;-61
2023/07/01 06:33:16;;;;;;;5.50;2.60;;;;;;;34.32;37.35;99903.40;108452;1281;21978;-60
2023/07/01 06:35:43;;;;;;;4.10;2.50;;;;;;;34.47;37.12;99902.58;108486;1277;21980;-72
2023/07/01 06:38:09;;;;;;;4.10;3.00;;;;;;;34.56;36.67;99906.62;108499;1281;21978;-60
2023/07/01 06:40:37;;;;;;;3.80;2.80;;;;;;;34.62;36.49;99905.67;108478;1281;21993;-72
2023/07/01 06:43:03;;;;;;;5.40;3.30;;;;;;;34.71;37.06;99904.58;108421;1277;21983;-72
2023/07/01 06:45:29;;;;;;;6.20;3.10;;;;;;;34.82;36.73;99907.20;108465;1277;21989;-61
2023/07/01 06:47:55;;;;;;;4.60;3.20;;;;;;;35.00;36.73;99909.61;108486;1281;22841;-61
2023/07/01 06:50:20;;;;;;;6.70;3.00;;;;;;;35.24;36.74;99906.36;108452;1281;24070;-72
2023/07/01 06:52:46;;;;;;;6.60;3.00;;;;;;;35.43;36.34;99900.85;108436;1282;22269;-61
2023/07/01 06:55:15;;;;;;;4.30;2.90;;;;;;;35.58;35.61;99903.18;108468;1274;21984;-71
2023/07/01 06:57:41;;;;;;;5.80;2.90;;;;;;;35.70;35.36;99903.30;108508;1281;22076;-62
2023/07/01 07:00:11;;;;;;;4.30;2.50;;;;;;;35.76;35.14;99903.48;108439;1281;22699;-61
2023/07/01 07:02:37;;;;;;;4.00;2.70;;;;;;;35.99;35.81;99902.77;108510;1275;23709;-61
2023/07/01 07:05:04;;;;;;;5.10;2.50;;;;;;;36.19;34.75;99904.84;108553;1281;22022;-69
2023/07/01 07:07:30;;;;;;;4.80;2.50;;;;;;;36.26;34.19;99900.25;108439;1277;21982;-72
2023/07/01 07:09:56;;;;;;;4.00;2.60;;;;;;;36.36;34.20;99900.83;108481;1274;23046;-73
2023/07/01 07:12:21;;;;;;;3.90;2.60;;;;;;;36.49;34.28;99903.65;108459;1273;21982;-73
2023/07/01 07:14:47;;;;;;;5.70;2.70;;;;;;;36.51;33.58;99900.84;108459;1282;21987;-72
2023/07/01 07:17:12;;;;;;;4.40;2.60;;;;;;;36.54;33.95;99903.00;108456;1277;21991;-73
2023/07/01 07:19:38;;;;;;;4.20;2.30;;;;;;;36.67;33.41;99900.46;108473;1281;21989;-73
2023/07/01 07:22:05;;;;;;;4.80;2.40;;;;;;;36.72;32.73;99900.70;108444;1280;21983;-62
2023/07/01 07:24:31;;;;;;;3.00;2.30;;;;;;;36.81;33.03;99898.93;108508;1281;21987;-63
2023/07/01 07:26:57;;;;;;;3.50;2.20;;;;;;;36.96;32.30;99902.34;108457;1273;21992;-63
2023/07/01 07:29:24;;;;;;;4.30;2.20;;;;;;;37.12;31.67;99902.47;108498;1281;21971;-62
2023/07/01 07:31:50;;;;;;;3.20;2.30;;;;;;;37.32;32.49;99898.65;108554;1274;21988;-72
2023/07/01 07:34:16;;;;;;;5.00;2.90;;;;;;;37.60;32.61;99897.80;108479;1281;22041;-62
2023/07/01 07:36:43;;;;;;;4.20;2.60;;;;;;;37.73;31.93;99900.02;108448;1280;21983;-72
2023/07/01 07:39:14;;;;;;;3.70;2.30;;;;;;;37.85;31.82;99897.58;108511;1281;21979;-62
2023/07/01 07:41:41;;;;;;;3.30;2.60;;;;;;;38.06;30.75;99897.85;108542;1270;24370;-73
2023/07/01 07:44:07;;;;;;;2.90;2.10;;;;;;;38.04;30.90;99899.46;108561;1281;21983;-62
2023/07/01 07:46:33;;;;;;;3.20;2.30;;;;;;;38.04;30.19;99900.30;108467;1282;21985;-62
2023/07/01 07:48:59;;;;;;;2.90;2.10;;;;;;;37.91;30.35;99898.69;108449;1277;21988;-62
2023/07/01 07:51:25;;;;;;;4.00;2.60;;;;;;;37.99;30.43;99894.98;108465;1278;21993;-73
2023/07/01 07:53:50;;;;;;;4.00;2.20;;;;;;;38.15;30.22;99899.80;108457;1277;21991;-63
2023/07/01 07:56:16;;;;;;;2.90;2.10;;;;;;;38.20;30.14;99898.86;108252;1269;21981;-60
2023/07/01 07:58:42;;;;;;;2.70;2.10;;;;;;;38.27;30.79;99900.24;108442;1278;21999;-63
2023/07/01 08:01:07;;;;;;;3.00;2.30;;;;;;;38.56;29.87;99905.63;108461;1281;21985;-63
2023/07/01 08:03:33;;;;;;;3.50;2.20;;;;;;;38.53;28.94;99908.27;108453;1281;21982;-63
2023/07/01 08:05:58;;;;;;;5.50;2.10;;;;;;;38.52;29.03;99906.39;108233;1281;23455;-73
2023/07/01 08:08:25;;;;;;;2.70;2.10;;;;;;;38.71;29.70;99902.84;108466;1281;21986;-63
2023/07/01 08:10:52;;;;;;;5.70;4.10;;;;;;;38.83;29.07;99897.40;108478;1281;21986;-72
2023/07/01 08:13:18;;;;;;;5.00;2.90;;;;;;;39.07;29.59;99897.35;108475;1282;21985;-62
2023/07/01 08:15:44;;;;;;;4.10;2.40;;;;;;;39.26;29.03;99896.67;108550;1277;21987;-73
2023/07/01 08:18:10;;;;;;;6.60;2.70;;;;;;;39.49;29.08;99896.05;108455;1281;21987;-70
2023/07/01 08:20:35;;;;;;;3.70;2.00;;;;;;;39.67;28.78;99896.35;108455;1277;23750;-60
2023/07/01 08:23:01;;;;;;;2.80;2.00;;;;;;;39.79;28.61;99897.84;108481;1281;21980;-60
2023/07/01 08:25:28;;;;;;;4.30;2.20;;;;;;;39.89;28.22;99893.36;108465;1281;23653;-60
2023/07/01 08:27:53;;;;;;;3.00;1.90;;;;;;;39.99;28.21;99890.83;108441;1280;21985;-60
2023/07/01 08:30:21;;;;;;;3.20;2.20;;;;;;;40.01;27.54;99894.58;108431;1280;22022;-71
2023/07/01 08:32:47;;;;;;;3.10;2.10;;;;;;;40.00;27.15;99897.08;108537;1277;22032;-73
2023/07/01 08:35:13;;;;;;;9.40;2.10;;;;;;;39.75;25.95;99895.70;108242;1281;22169;-70
2023/07/01 08:37:38;;;;;;;15.50;2.50;;;;;;;39.47;25.75;99895.84;108451;1277;21997;-63
2023/07/01 08:40:08;;;;;;;3.00;2.00;;;;;;;39.14;25.13;99898.52;108478;1277;21985;-63
2023/07/01 08:42:39;;;;;;;3.90;1.90;;;;;;;38.86;25.94;99895.83;108474;1274;21987;-61
2023/07/01 08:45:05;;;;;;;2.90;1.80;;;;;;;38.88;25.85;99895.56;108474;1281;21981;-60
2023/07/01 08:47:32;;;;;;;2.80;2.00;;;;;;;38.85;25.42;99889.98;108520;1281;21981;-61
2023/07/01 08:49:58;;;;;;;12.70;2.50;;;;;;;38.85;25.29;99892.91;108490;1276;21985;-70
2023/07/01 08:52:23;;;;;;;9.10;2.70;;;;;;;38.89;25.87;99892.05;108454;1277;22016;-71
2023/07/01 08:54:49;;;;;;;4.50;2.10;;;;;;;39.12;25.95;99894.36;108460;1274;22004;-71
2023/07/01 08:57:15;;;;;;;3.10;2.00;;;;;;;39.62;26.73;99888.70;108229;1277;21984;-72
2023/07/01 08:59:44;;;;;;;2.80;1.90;;;;;;;40.03;26.16;99886.80;108174;1282;21987;-72
2023/07/01 09:02:10;;;;;;;3.00;2.20;;;;;;;40.12;25.19;99884.98;108276;1280;21982;-72
2023/07/01 09:04:37;;;;;;;5.50;2.00;;;;;;;40.08;25.14;99881.84;108226;1282;21990;-63
2023/07/01 09:07:04;;;;;;;4.00;2.00;;;;;;;40.09;24.73;99876.87;108460;1281;22040;-62
2023/07/01 09:09:29;;;;;;;4.90;2.00;;;;;;;40.26;25.40;99877.91;108512;1273;22015;-63
2023/07/01 09:11:57;;;;;;;4.80;2.20;;;;;;;40.58;25.86;99871.18;108245;1281;22028;-71
2023/07/01 09:14:23;;;;;;;4.00;2.40;;;;;;;40.99;25.99;99867.60;108461;1281;21980;-63
2023/07/01 09:16:48;;;;;;;3.60;2.00;;;;;;;41.31;24.20;99869.34;108462;1281;22004;-71
2023/07/01 09:19:16;;;;;;;3.70;2.10;;;;;;;41.16;24.43;99865.94;108440;1280;21988;-72
2023/07/01 09:21:43;;;;;;;2.80;2.00;;;;;;;40.93;24.61;99865.69;108428;1279;21983;-71
2023/07/01 09:24:10;;;;;;;4.60;2.00;;;;;;;40.99;25.50;99857.58;108509;1278;21979;-63
2023/07/01 09:26:35;;;;;;;2.90;2.10;;;;;;;41.17;24.71;99855.23;108426;1281;22019;-63
2023/07/01 09:29:09;;;;;;;2.90;2.00;;;;;;;41.08;24.42;99856.90;108453;1277;21983;-73
2023/07/01 09:31:50;;;;;;;5.30;2.40;;;;;;;40.95;24.13;99856.83;108387;1276;24344;-63
2023/07/01 09:34:17;;;;;;;3.60;2.00;;;;;;;40.84;23.88;99852.52;108410;1281;23711;-63
2023/07/01 09:36:42;;;;;;;2.90;2.00;;;;;;;40.83;23.65;99846.92;108470;1281;22029;-63
2023/07/01 09:39:08;;;;;;;3.30;2.10;;;;;;;40.91;23.59;99847.95;108436;1272;22735;-63
2023/07/01 09:41:34;;;;;;;4.30;2.10;;;;;;;40.85;23.66;99848.77;108449;1281;21980;-63
2023/07/01 09:44:00;;;;;;;3.00;1.90;;;;;;;40.80;23.65;99848.33;108402;1281;21980;-63
2023/07/01 09:46:46;;;;;;;2.40;2.00;;;;;;;40.76;23.50;99835.60;108425;1275;22088;-62
2023/07/01 09:49:12;;;;;;;3.40;2.10;;;;;;;40.81;22.43;99841.27;108182;1281;23673;-63
2023/07/01 09:51:51;;;;;;;3.20;2.10;;;;;;;40.78;22.88;99844.15;108453;1281;22010;-63
2023/07/01 09:54:23;;;;;;;2.70;2.10;;;;;;;40.72;23.30;99842.27;108444;1282;21985;-63
2023/07/01 09:56:49;;;;;;;2.40;2.00;;;;;;;40.65;23.35;99844.89;108501;1277;22967;-63
2023/07/01 09:59:15;;;;;;;2.90;1.90;;;;;;;40.59;23.67;99843.64;108256;1280;22020;-64
2023/07/01 10:01:40;;;;;;;3.60;1.80;;;;;;;40.50;23.62;99844.59;108456;1274;21980;-63
2023/07/01 10:04:06;;;;;;;2.40;2.00;;;;;;;40.35;23.52;99841.44;108454;1269;21983;-63
2023/07/01 10:06:31;;;;;;;2.40;1.90;;;;;;;40.01;22.62;99841.14;108519;1281;21983;-73
2023/07/01 10:08:57;;;;;;;3.60;2.10;;;;;;;39.67;23.75;99838.02;108414;1281;21989;-73
2023/07/01 10:11:23;;;;;;;3.30;2.10;;;;;;;39.38;24.13;99834.24;108429;1281;22755;-72
2023/07/01 10:13:51;;;;;;;4.30;2.10;;;;;;;39.26;24.29;99831.52;108141;1280;23846;-72
2023/07/01 10:16:16;;;;;;;6.70;2.20;;;;;;;39.31;24.30;99832.56;108468;1270;21986;-69
2023/07/01 10:18:42;;;;;;;3.30;2.00;;;;;;;39.35;23.36;99831.18;108159;1269;21987;-70
2023/07/01 10:21:24;;;;;;;3.90;2.00;;;;;;;39.36;23.68;99826.23;108200;1277;24448;-71
2023/07/01 10:23:53;;;;;;;3.60;1.90;;;;;;;39.37;23.72;99828.45;108445;1280;22005;-71
2023/07/01 10:26:31;;;;;;;2.90;2.10;;;;;;;39.42;23.75;99829.70;108440;1281;21986;-71
2023/07/01 10:28:57;;;;;;;4.90;2.00;;;;;;;39.50;23.91;99826.26;108428;1281;23068;-70
2023/07/01 10:31:23;;;;;;;3.10;2.00;;;;;;;39.63;23.71;99817.46;108477;1276;21985;-61
2023/07/01 10:33:50;;;;;;;5.00;2.10;;;;;;;39.80;23.54;99817.94;108410;1278;21988;-63
2023/07/01 10:36:19;;;;;;;3.90;2.00;;;;;;;40.10;23.38;99818.55;108382;1277;21977;-63
2023/07/01 10:38:44;;;;;;;5.50;2.10;;;;;;;40.39;22.36;99814.77;108368;1278;22452;-62
2023/07/01 10:41:10;;;;;;;4.20;2.30;;;;;;;40.61;22.39;99815.45;108454;1281;21982;-69
2023/07/01 10:43:37;;;;;;;2.80;1.90;;;;;;;40.63;21.89;99816.39;108485;1277;21982;-62
2023/07/01 10:46:03;;;;;;;3.20;1.80;;;;;;;40.56;21.61;99816.27;108501;1277;21995;-61
2023/07/01 10:48:29;;;;;;;2.80;1.90;;;;;;;40.46;21.15;99815.53;108432;1274;22020;-61
2023/07/01 10:51:04;;;;;;;4.30;1.70;;;;;;;40.32;21.81;99813.88;108254;1275;22017;-62
2023/07/01 10:53:30;;;;;;;2.60;1.80;;;;;;;40.33;21.27;99811.16;108467;1282;21986;-61
2023/07/01 10:56:10;;;;;;;4.10;2.00;;;;;;;40.38;21.32;99807.91;108459;1279;21988;-70
2023/07/01 10:58:36;;;;;;;4.30;2.10;;;;;;;40.26;21.81;99803.33;108274;1282;21984;-71
2023/07/01 11:01:03;;;;;;;6.00;1.80;;;;;;;40.18;22.23;99801.33;108243;1280;22450;-70
2023/07/01 11:03:33;;;;;;;4.60;2.30;;;;;;;40.21;22.29;99803.88;108447;1281;22553;-71
2023/07/01 11:05:59;;;;;;;6.40;2.30;;;;;;;40.33;21.82;99804.53;108422;1281;22043;-72
2023/07/01 11:08:29;;;;;;;2.80;1.90;;;;;;;40.43;21.36;99799.92;108445;1280;23720;-72
2023/07/01 11:10:54;;;;;;;;;;;;;;;40.55;21.74;99792.78;108512;1281;21964;-71
2023/07/01 11:13:21;;;;;;;3.20;1.60;;;;;;;40.86;21.69;99786.92;108575;1277;21986;-63
2023/07/01 11:16:06;;;;;;;4.20;2.20;;;;;;;41.14;20.66;99784.88;108462;1281;23809;-72
2023/07/01 11:18:40;;;;;;;4.80;1.80;;;;;;;41.35;20.66;99782.95;108126;1280;21984;-63
2023/07/01 11:21:05;;;;;;;4.80;2.20;;;;;;;41.58;20.56;99783.59;108371;1281;22030;-63
2023/07/01 11:23:31;;;;;;;2.10;1.50;;;;;;;41.72;20.63;99783.36;108419;1281;22161;-64